createdAt,value
2019-03-28T00:00:39.447Z,1.00
2019-03-28T00:01:39.420Z,0.90
2019-03-28T00:02:39.409Z,0.80
2019-03-28T00:03:39.396Z,1.00
2019-03-28T00:04:39.387Z,0.70
2019-03-28T00:05:39.390Z,1.00
2019-03-28T00:06:39.366Z,0.80
2019-03-28T00:07:39.352Z,0.80
2019-03-28T00:08:39.343Z,0.80
2019-03-28T00:09:39.329Z,1.00
2019-03-28T00:10:39.333Z,0.80
2019-03-28T00:11:39.308Z,0.90
2019-03-28T00:12:40.111Z,0.80
2019-03-28T00:13:39.298Z,1.10
2019-03-28T00:14:39.274Z,1.00
2019-03-28T00:15:39.280Z,1.00
2019-03-28T00:16:39.251Z,1.10
2019-03-28T00:17:39.250Z,0.80
2019-03-28T00:18:39.230Z,0.90
2019-03-28T00:19:39.218Z,0.90
2019-03-28T00:20:39.222Z,0.90
2019-03-28T00:21:39.195Z,1.10
2019-03-28T00:22:39.185Z,0.80
2019-03-28T00:23:39.173Z,0.80
2019-03-28T00:24:39.162Z,0.80
2019-03-28T00:25:39.165Z,0.80
2019-03-28T00:26:39.140Z,0.70
2019-03-28T00:27:39.127Z,0.80
2019-03-28T00:28:39.118Z,0.80
2019-03-28T00:29:39.106Z,0.90
2019-03-28T00:30:39.117Z,0.70
2019-03-28T00:31:39.085Z,0.80
2019-03-28T00:32:39.075Z,1.00
2019-03-28T00:33:39.061Z,1.00
2019-03-28T00:34:39.050Z,0.80
2019-03-28T00:35:39.054Z,0.90
2019-03-28T00:36:39.038Z,0.90
2019-03-28T00:37:39.017Z,1.00
2019-03-28T00:38:39.006Z,0.80
2019-03-28T00:39:38.995Z,0.90
2019-03-28T00:40:38.998Z,0.70
2019-03-28T00:41:38.972Z,0.90
2019-03-28T00:42:38.961Z,1.10
2019-03-28T00:43:38.950Z,0.90
2019-03-28T00:44:38.942Z,0.80
2019-03-28T00:45:38.944Z,0.90
2019-03-28T00:46:38.921Z,0.90
2019-03-28T00:47:38.906Z,0.90
2019-03-28T00:48:38.895Z,0.80
2019-03-28T00:49:38.885Z,1.00
2019-03-28T00:50:38.888Z,0.90
2019-03-28T00:51:38.864Z,0.80
2019-03-28T00:52:38.850Z,0.90
2019-03-28T00:53:38.839Z,0.90
2019-03-28T00:54:38.829Z,0.80
2019-03-28T00:55:38.832Z,0.80
2019-03-28T00:56:46.857Z,0.90
2019-03-28T00:57:39.793Z,0.80
2019-03-28T00:58:38.784Z,0.80
2019-03-28T00:59:38.772Z,0.80
2019-03-28T01:00:38.776Z,0.90
2019-03-28T01:01:38.750Z,0.80
2019-03-28T01:02:38.738Z,1.00
2019-03-28T01:03:38.730Z,0.90
2019-03-28T01:04:38.719Z,0.90
2019-03-28T01:05:38.720Z,0.90
2019-03-28T01:06:38.695Z,0.80
2019-03-28T01:07:38.684Z,0.90
2019-03-28T01:08:38.673Z,0.90
2019-03-28T01:09:38.662Z,0.90
2019-03-28T01:10:38.664Z,0.90
2019-03-28T01:11:38.640Z,0.80
2019-03-28T01:12:38.627Z,0.70
2019-03-28T01:13:38.618Z,0.70
2019-03-28T01:14:38.611Z,0.90
2019-03-28T01:15:38.610Z,0.70
2019-03-28T01:16:39.398Z,1.00
2019-03-28T01:17:38.572Z,0.90
2019-03-28T01:18:38.562Z,0.90
2019-03-28T01:19:38.550Z,0.80
2019-03-28T01:20:38.552Z,0.90
2019-03-28T01:21:38.528Z,1.00
2019-03-28T01:22:38.519Z,0.90
2019-03-28T01:23:38.504Z,0.80
2019-03-28T01:24:38.492Z,0.80
2019-03-28T01:25:38.497Z,1.10
2019-03-28T01:26:38.471Z,1.00
2019-03-28T01:27:38.461Z,0.90
2019-03-28T01:28:38.449Z,0.80
2019-03-28T01:29:38.437Z,0.80
2019-03-28T01:30:38.461Z,0.70
2019-03-28T01:31:38.416Z,0.80
2019-03-28T01:32:38.408Z,0.80
2019-03-28T01:33:38.393Z,0.80
2019-03-28T01:34:38.383Z,0.90
2019-03-28T01:35:38.372Z,0.80
2019-03-28T01:36:38.530Z,0.90
2019-03-28T01:37:38.355Z,1.00
2019-03-28T01:38:38.337Z,0.80
2019-03-28T01:39:38.337Z,0.80
2019-03-28T01:40:38.332Z,1.00
2019-03-28T01:41:38.320Z,1.00
2019-03-28T01:42:38.296Z,0.80
2019-03-28T01:43:38.283Z,0.90
2019-03-28T01:44:38.272Z,0.80
2019-03-28T01:45:38.263Z,0.70
2019-03-28T01:46:38.264Z,0.70
2019-03-28T01:47:38.238Z,0.70
2019-03-28T01:48:38.227Z,0.90
2019-03-28T01:49:38.215Z,0.80
2019-03-28T01:50:38.203Z,1.00
2019-03-28T01:51:38.208Z,0.80
2019-03-28T01:52:38.185Z,1.00
2019-03-28T01:53:38.279Z,0.80
2019-03-28T01:54:38.161Z,1.00
2019-03-28T01:55:38.155Z,1.00
2019-03-28T01:56:38.157Z,0.90
2019-03-28T01:57:38.262Z,0.80
2019-03-28T01:58:38.117Z,0.80
2019-03-28T01:59:38.107Z,0.90
2019-03-28T02:00:38.355Z,0.80
2019-03-28T02:01:38.096Z,0.90
2019-03-28T02:02:38.071Z,1.00
2019-03-28T02:03:38.058Z,0.80
2019-03-28T02:04:38.051Z,0.90
2019-03-28T02:05:38.039Z,1.00
2019-03-28T02:06:38.040Z,0.90
2019-03-28T02:07:38.015Z,0.80
2019-03-28T02:08:38.003Z,0.80
2019-03-28T02:09:37.993Z,0.80
2019-03-28T02:10:37.980Z,0.90
2019-03-28T02:11:37.984Z,0.90
2019-03-28T02:12:37.958Z,0.90
2019-03-28T02:13:37.948Z,1.00
2019-03-28T02:14:38.347Z,0.80
2019-03-28T02:15:37.925Z,0.90
2019-03-28T02:16:37.931Z,0.80
2019-03-28T02:17:37.905Z,0.70
2019-03-28T02:18:37.893Z,0.90
2019-03-28T02:19:37.879Z,0.80
2019-03-28T02:20:37.870Z,0.90
2019-03-28T02:21:37.875Z,0.90
2019-03-28T02:22:37.848Z,0.90
2019-03-28T02:23:37.913Z,0.80
2019-03-28T02:24:37.825Z,0.90
2019-03-28T02:25:37.813Z,0.80
2019-03-28T02:26:37.818Z,0.90
2019-03-28T02:27:37.791Z,1.00
2019-03-28T02:28:37.782Z,0.90
2019-03-28T02:29:37.770Z,0.80
2019-03-28T02:30:37.761Z,0.90
2019-03-28T02:31:37.778Z,0.80
2019-03-28T02:32:37.737Z,0.90
2019-03-28T02:33:37.723Z,0.90
2019-03-28T02:34:37.716Z,1.00
2019-03-28T02:35:37.704Z,0.70
2019-03-28T02:36:37.693Z,0.80
2019-03-28T02:37:37.695Z,0.90
2019-03-28T02:38:37.670Z,1.10
2019-03-28T02:39:37.658Z,0.80
2019-03-28T02:40:37.647Z,1.00
2019-03-28T02:41:37.645Z,0.70
2019-03-28T02:42:37.641Z,1.00
2019-03-28T02:43:37.612Z,0.90
2019-03-28T02:44:37.855Z,0.80
2019-03-28T02:45:37.589Z,1.00
2019-03-28T02:46:37.584Z,0.80
2019-03-28T02:47:37.589Z,0.80
2019-03-28T02:48:37.557Z,0.90
2019-03-28T02:49:37.547Z,0.80
2019-03-28T02:50:37.838Z,0.90
2019-03-28T02:51:37.527Z,0.90
2019-03-28T02:52:37.528Z,0.90
2019-03-28T02:53:37.504Z,0.90
2019-03-28T02:54:37.490Z,1.00
2019-03-28T02:55:37.478Z,0.80
2019-03-28T02:56:37.469Z,0.90
2019-03-28T02:57:41.717Z,1.00
2019-03-28T02:58:38.447Z,0.80
2019-03-28T02:59:37.434Z,0.90
2019-03-28T03:00:37.424Z,0.80
2019-03-28T03:01:37.413Z,0.90
2019-03-28T03:02:37.430Z,0.90
2019-03-28T03:03:37.389Z,0.70
2019-03-28T03:04:37.377Z,1.00
2019-03-28T03:05:37.417Z,0.80
2019-03-28T03:06:37.355Z,0.80
2019-03-28T03:07:37.361Z,0.90
2019-03-28T03:08:37.335Z,0.90
2019-03-28T03:09:37.322Z,0.90
2019-03-28T03:10:37.315Z,0.80
2019-03-28T03:11:37.308Z,0.90
2019-03-28T03:12:37.302Z,0.80
2019-03-28T03:13:37.278Z,0.80
2019-03-28T03:14:37.655Z,0.90
2019-03-28T03:15:37.256Z,0.90
2019-03-28T03:16:37.244Z,0.80
2019-03-28T03:17:37.251Z,0.90
2019-03-28T03:18:37.222Z,0.80
2019-03-28T03:19:37.210Z,0.90
2019-03-28T03:20:37.197Z,0.80
2019-03-28T03:21:37.187Z,0.80
2019-03-28T03:22:37.197Z,1.10
2019-03-28T03:23:37.165Z,0.80
2019-03-28T03:24:37.154Z,1.00
2019-03-28T03:25:37.143Z,0.90
2019-03-28T03:26:37.131Z,1.00
2019-03-28T03:27:37.138Z,1.00
2019-03-28T03:28:37.109Z,1.00
2019-03-28T03:29:37.097Z,0.90
2019-03-28T03:30:37.094Z,0.80
2019-03-28T03:31:37.098Z,0.90
2019-03-28T03:32:37.094Z,0.80
2019-03-28T03:33:37.824Z,0.80
2019-03-28T03:34:37.043Z,0.90
2019-03-28T03:35:37.071Z,1.00
2019-03-28T03:36:37.019Z,1.00
2019-03-28T03:37:37.024Z,1.00
2019-03-28T03:38:37.012Z,1.00
2019-03-28T03:39:37.000Z,0.90
2019-03-28T03:40:36.975Z,0.90
2019-03-28T03:41:36.964Z,0.70
2019-03-28T03:42:36.954Z,0.90
2019-03-28T03:43:36.955Z,0.80
2019-03-28T03:44:36.931Z,1.00
2019-03-28T03:45:36.918Z,0.90
2019-03-28T03:46:36.916Z,0.90
2019-03-28T03:47:36.898Z,0.90
2019-03-28T03:48:36.898Z,0.90
2019-03-28T03:49:36.878Z,0.90
2019-03-28T03:50:36.868Z,0.90
2019-03-28T03:51:36.852Z,0.90
2019-03-28T03:52:36.852Z,1.00
2019-03-28T03:53:36.921Z,0.80
2019-03-28T03:54:36.817Z,0.90
2019-03-28T03:55:36.806Z,0.80
2019-03-28T03:56:36.798Z,1.00
2019-03-28T03:57:36.784Z,1.00
2019-03-28T03:58:36.787Z,1.00
2019-03-28T03:59:37.430Z,0.80
2019-03-28T04:00:36.758Z,0.90
2019-03-28T04:01:36.741Z,1.00
2019-03-28T04:02:36.957Z,0.90
2019-03-28T04:03:36.743Z,1.00
2019-03-28T04:04:36.706Z,0.90
2019-03-28T04:05:36.695Z,0.90
2019-03-28T04:06:36.703Z,0.80
2019-03-28T04:07:36.674Z,1.10
2019-03-28T04:08:36.680Z,1.10
2019-03-28T04:09:36.660Z,1.00
2019-03-28T04:10:36.641Z,0.90
2019-03-28T04:11:36.632Z,0.90
2019-03-28T04:12:36.622Z,0.90
2019-03-28T04:13:36.757Z,0.80
2019-03-28T04:14:36.596Z,0.80
2019-03-28T04:15:37.925Z,0.90
2019-03-28T04:16:36.570Z,0.90
2019-03-28T04:17:36.560Z,1.10
2019-03-28T04:18:36.565Z,0.90
2019-03-28T04:19:36.537Z,1.00
2019-03-28T04:20:36.526Z,0.90
2019-03-28T04:21:36.516Z,1.00
2019-03-28T04:22:37.183Z,0.90
2019-03-28T04:23:36.510Z,0.90
2019-03-28T04:24:36.483Z,0.80
2019-03-28T04:25:36.472Z,0.90
2019-03-28T04:26:36.467Z,0.90
2019-03-28T04:27:36.451Z,0.80
2019-03-28T04:28:36.458Z,1.00
2019-03-28T04:29:36.427Z,1.00
2019-03-28T04:30:36.416Z,0.80
2019-03-28T04:31:36.407Z,0.90
2019-03-28T04:32:36.400Z,0.90
2019-03-28T04:33:36.379Z,0.80
2019-03-28T04:34:36.387Z,0.80
2019-03-28T04:35:36.361Z,0.80
2019-03-28T04:36:36.350Z,0.90
2019-03-28T04:37:36.343Z,0.90
2019-03-28T04:38:36.329Z,0.90
2019-03-28T04:39:36.330Z,0.80
2019-03-28T04:40:36.302Z,1.00
2019-03-28T04:41:36.292Z,1.00
2019-03-28T04:42:36.281Z,0.90
2019-03-28T04:43:36.269Z,1.10
2019-03-28T04:44:36.273Z,0.90
2019-03-28T04:45:36.247Z,1.00
2019-03-28T04:46:36.237Z,0.80
2019-03-28T04:47:36.344Z,1.10
2019-03-28T04:48:36.213Z,1.10
2019-03-28T04:49:36.218Z,1.00
2019-03-28T04:50:36.238Z,0.80
2019-03-28T04:51:36.184Z,0.80
2019-03-28T04:52:36.169Z,1.10
2019-03-28T04:53:36.157Z,0.90
2019-03-28T04:54:36.166Z,0.90
2019-03-28T04:55:36.135Z,0.90
2019-03-28T04:56:36.126Z,0.80
2019-03-28T04:57:36.114Z,1.00
2019-03-28T04:58:44.263Z,1.00
2019-03-28T04:59:37.108Z,1.10
2019-03-28T05:00:36.081Z,1.00
2019-03-28T05:01:36.068Z,1.00
2019-03-28T05:02:36.058Z,1.10
2019-03-28T05:03:36.049Z,1.00
2019-03-28T05:04:36.051Z,0.90
2019-03-28T05:05:36.026Z,1.00
2019-03-28T05:06:38.050Z,1.00
2019-03-28T05:07:36.004Z,0.90
2019-03-28T05:08:35.991Z,0.80
2019-03-28T05:09:35.997Z,1.00
2019-03-28T05:10:35.970Z,1.00
2019-03-28T05:11:35.957Z,0.90
2019-03-28T05:12:35.948Z,0.90
2019-03-28T05:13:35.936Z,1.00
2019-03-28T05:14:35.944Z,0.90
2019-03-28T05:15:35.949Z,0.90
2019-03-28T05:16:35.907Z,1.00
2019-03-28T05:17:35.892Z,1.00
2019-03-28T05:18:35.883Z,0.90
2019-03-28T05:19:35.885Z,1.10
2019-03-28T05:20:35.858Z,1.10
2019-03-28T05:21:35.848Z,1.10
2019-03-28T05:22:35.837Z,1.00
2019-03-28T05:23:35.828Z,1.00
2019-03-28T05:24:35.831Z,1.00
2019-03-28T05:25:35.804Z,1.00
2019-03-28T05:26:35.792Z,0.90
2019-03-28T05:27:35.783Z,0.90
2019-03-28T05:28:35.772Z,1.10
2019-03-28T05:29:36.061Z,1.00
2019-03-28T05:30:35.748Z,0.90
2019-03-28T05:31:35.744Z,1.10
2019-03-28T05:32:35.729Z,1.10
2019-03-28T05:33:35.715Z,0.90
2019-03-28T05:34:35.704Z,1.00
2019-03-28T05:35:35.710Z,1.10
2019-03-28T05:36:35.681Z,1.20
2019-03-28T05:37:36.418Z,1.10
2019-03-28T05:38:35.660Z,1.10
2019-03-28T05:39:35.649Z,1.00
2019-03-28T05:40:36.494Z,1.00
2019-03-28T05:41:35.629Z,1.10
2019-03-28T05:42:35.617Z,1.10
2019-03-28T05:43:35.634Z,1.20
2019-03-28T05:44:35.596Z,1.10
2019-03-28T05:45:35.601Z,1.00
2019-03-28T05:46:35.575Z,1.10
2019-03-28T05:47:35.564Z,1.10
2019-03-28T05:48:35.551Z,1.00
2019-03-28T05:49:35.540Z,1.00
2019-03-28T05:50:35.545Z,1.00
2019-03-28T05:51:35.519Z,1.00
2019-03-28T05:52:35.541Z,1.00
2019-03-28T05:53:35.497Z,1.20
2019-03-28T05:54:35.487Z,1.00
2019-03-28T05:55:35.492Z,1.00
2019-03-28T05:56:35.463Z,1.10
2019-03-28T05:57:35.453Z,0.90
2019-03-28T05:58:35.445Z,1.10
2019-03-28T05:59:35.432Z,1.00
2019-03-28T06:00:35.770Z,1.20
2019-03-28T06:01:35.413Z,1.20
2019-03-28T06:02:35.400Z,1.10
2019-03-28T06:03:35.386Z,1.00
2019-03-28T06:04:35.381Z,1.10
2019-03-28T06:05:35.378Z,1.10
2019-03-28T06:06:35.353Z,1.10
2019-03-28T06:07:36.356Z,1.10
2019-03-28T06:08:35.341Z,1.10
2019-03-28T06:09:35.321Z,1.10
2019-03-28T06:10:36.409Z,1.20
2019-03-28T06:11:35.298Z,1.10
2019-03-28T06:12:35.287Z,1.20
2019-03-28T06:13:35.281Z,1.00
2019-03-28T06:14:35.264Z,1.20
2019-03-28T06:15:35.268Z,1.00
2019-03-28T06:16:35.241Z,1.20
2019-03-28T06:17:35.232Z,1.10
2019-03-28T06:18:35.219Z,1.10
2019-03-28T06:19:35.209Z,1.00
2019-03-28T06:20:35.212Z,1.10
2019-03-28T06:21:35.186Z,1.00
2019-03-28T06:22:35.181Z,1.20
2019-03-28T06:23:35.167Z,1.20
2019-03-28T06:24:35.154Z,0.90
2019-03-28T06:25:35.162Z,1.30
2019-03-28T06:26:35.139Z,1.20
2019-03-28T06:27:35.124Z,1.20
2019-03-28T06:28:35.115Z,1.10
2019-03-28T06:29:35.099Z,1.00
2019-03-28T06:30:35.101Z,1.20
2019-03-28T06:31:35.090Z,1.20
2019-03-28T06:32:42.657Z,1.20
2019-03-28T06:33:38.398Z,1.00
2019-03-28T06:34:35.046Z,1.00
2019-03-28T06:35:35.055Z,0.90
2019-03-28T06:36:35.022Z,1.10
2019-03-28T06:37:35.011Z,1.00
2019-03-28T06:38:35.001Z,1.10
2019-03-28T06:39:36.462Z,1.00
2019-03-28T06:40:34.991Z,1.00
2019-03-28T06:41:34.968Z,1.10
2019-03-28T06:42:34.955Z,1.00
2019-03-28T06:43:34.945Z,0.90
2019-03-28T06:44:34.934Z,1.00
2019-03-28T06:45:34.937Z,1.10
2019-03-28T06:46:34.913Z,1.10
2019-03-28T06:47:34.900Z,1.00
2019-03-28T06:48:34.896Z,1.10
2019-03-28T06:49:34.880Z,1.00
2019-03-28T06:50:34.888Z,1.00
2019-03-28T06:51:34.858Z,1.20
2019-03-28T06:52:34.848Z,1.00
2019-03-28T06:53:34.839Z,0.90
2019-03-28T06:54:34.825Z,1.20
2019-03-28T06:55:36.909Z,1.10
2019-03-28T06:56:34.807Z,1.10
2019-03-28T06:57:34.795Z,1.00
2019-03-28T06:58:34.783Z,0.90
2019-03-28T06:59:37.546Z,1.10
2019-03-28T07:00:34.796Z,1.10
2019-03-28T07:01:34.751Z,1.00
2019-03-28T07:02:34.739Z,1.00
2019-03-28T07:03:34.728Z,1.00
2019-03-28T07:04:34.717Z,1.00
2019-03-28T07:05:34.708Z,1.10
2019-03-28T07:06:34.711Z,1.10
2019-03-28T07:07:34.686Z,1.00
2019-03-28T07:08:34.677Z,1.00
2019-03-28T07:09:34.668Z,1.10
2019-03-28T07:10:34.653Z,0.90
2019-03-28T07:11:34.658Z,0.90
2019-03-28T07:12:34.635Z,1.10
2019-03-28T07:13:34.620Z,0.90
2019-03-28T07:14:34.611Z,0.90
2019-03-28T07:15:36.750Z,1.00
2019-03-28T07:16:34.602Z,0.90
2019-03-28T07:17:34.577Z,1.00
2019-03-28T07:18:34.566Z,0.90
2019-03-28T07:19:34.554Z,1.00
2019-03-28T07:20:34.544Z,1.00
2019-03-28T07:21:34.548Z,0.90
2019-03-28T07:22:34.522Z,1.00
2019-03-28T07:23:34.511Z,0.90
2019-03-28T07:24:34.505Z,0.80
2019-03-28T07:25:34.491Z,1.00
2019-03-28T07:26:34.492Z,1.00
2019-03-28T07:27:34.467Z,1.00
2019-03-28T07:28:34.462Z,1.10
2019-03-28T07:29:34.445Z,1.10
2019-03-28T07:30:34.433Z,1.00
2019-03-28T07:31:35.639Z,1.00
2019-03-28T07:32:34.411Z,1.10
2019-03-28T07:33:34.404Z,1.10
2019-03-28T07:34:34.392Z,0.90
2019-03-28T07:35:34.380Z,1.10
2019-03-28T07:36:34.384Z,1.10
2019-03-28T07:37:34.356Z,1.00
2019-03-28T07:38:34.344Z,1.00
2019-03-28T07:39:34.333Z,1.10
2019-03-28T07:40:34.323Z,0.90
2019-03-28T07:41:34.323Z,1.00
2019-03-28T07:42:34.330Z,1.10
2019-03-28T07:43:34.286Z,1.00
2019-03-28T07:44:37.399Z,1.00
2019-03-28T07:45:34.655Z,1.10
2019-03-28T07:46:34.290Z,1.10
2019-03-28T07:47:34.242Z,1.30
2019-03-28T07:48:34.229Z,0.90
2019-03-28T07:49:37.349Z,1.10
2019-03-28T07:50:34.207Z,0.90
2019-03-28T07:51:34.195Z,0.90
2019-03-28T07:52:34.200Z,1.10
2019-03-28T07:53:34.174Z,1.30
2019-03-28T07:54:34.164Z,0.90
2019-03-28T07:55:34.157Z,1.20
2019-03-28T07:56:34.138Z,1.00
2019-03-28T07:57:34.141Z,1.10
2019-03-28T07:58:34.116Z,1.20
2019-03-28T07:59:34.106Z,1.00
2019-03-28T08:00:34.092Z,1.20
2019-03-28T08:01:34.082Z,1.10
2019-03-28T08:02:34.093Z,1.30
2019-03-28T08:03:34.059Z,1.30
2019-03-28T08:04:34.050Z,1.50
2019-03-28T08:05:34.036Z,1.70
2019-03-28T08:06:34.025Z,2.10
2019-03-28T08:07:44.264Z,1.70
2019-03-28T08:08:38.934Z,2.20
2019-03-28T08:09:36.797Z,1.90
2019-03-28T08:10:33.979Z,2.20
2019-03-28T08:11:34.060Z,2.10
2019-03-28T08:12:33.970Z,2.00
2019-03-28T08:13:33.946Z,1.90
2019-03-28T08:14:33.933Z,2.10
2019-03-28T08:15:33.925Z,1.70
2019-03-28T08:16:33.912Z,1.90
2019-03-28T08:17:33.917Z,1.80
2019-03-28T08:18:33.890Z,2.10
2019-03-28T08:19:33.881Z,1.70
2019-03-28T08:20:33.880Z,2.10
2019-03-28T08:21:33.859Z,2.20
2019-03-28T08:22:33.861Z,2.20
2019-03-28T08:23:35.472Z,2.00
2019-03-28T08:24:33.825Z,2.30
2019-03-28T08:25:33.814Z,2.00
2019-03-28T08:26:33.802Z,2.10
2019-03-28T08:27:33.805Z,1.80
2019-03-28T08:28:33.779Z,2.10
2019-03-28T08:29:33.769Z,2.20
2019-03-28T08:30:33.756Z,2.00
2019-03-28T08:31:33.745Z,2.10
2019-03-28T08:32:34.626Z,2.30
2019-03-28T08:33:33.725Z,2.10
2019-03-28T08:34:33.715Z,2.20
2019-03-28T08:35:33.774Z,2.50
2019-03-28T08:36:33.689Z,2.30
2019-03-28T08:37:33.678Z,2.30
2019-03-28T08:38:33.681Z,2.10
2019-03-28T08:39:33.654Z,2.20
2019-03-28T08:40:33.653Z,2.20
2019-03-28T08:41:33.634Z,2.40
2019-03-28T08:42:33.619Z,2.30
2019-03-28T08:43:36.048Z,2.40
2019-03-28T08:44:33.597Z,2.10
2019-03-28T08:45:34.371Z,2.30
2019-03-28T08:46:33.575Z,2.20
2019-03-28T08:47:33.563Z,1.80
2019-03-28T08:48:33.566Z,1.90
2019-03-28T08:49:33.542Z,1.90
2019-03-28T08:50:33.538Z,1.70
2019-03-28T08:51:33.516Z,1.80
2019-03-28T08:52:33.510Z,1.90
2019-03-28T08:53:33.508Z,1.80
2019-03-28T08:54:33.484Z,2.10
2019-03-28T08:55:33.472Z,1.80
2019-03-28T08:56:33.458Z,1.60
2019-03-28T08:57:33.449Z,1.70
2019-03-28T08:58:33.451Z,1.70
2019-03-28T08:59:48.384Z,1.60
2019-03-28T09:00:50.286Z,1.60
2019-03-28T09:01:34.403Z,1.60
2019-03-28T09:02:33.394Z,1.90
2019-03-28T09:03:33.399Z,1.60
2019-03-28T09:04:33.372Z,1.70
2019-03-28T09:05:33.359Z,1.60
2019-03-28T09:06:33.348Z,1.60
2019-03-28T09:07:33.338Z,1.60
2019-03-28T09:08:33.343Z,1.60
2019-03-28T09:09:33.318Z,1.60
2019-03-28T09:10:33.308Z,1.40
2019-03-28T09:11:33.293Z,1.50
2019-03-28T09:12:35.173Z,1.50
2019-03-28T09:13:33.286Z,1.40
2019-03-28T09:14:54.279Z,1.60
2019-03-28T09:15:47.904Z,1.50
2019-03-28T09:16:33.238Z,1.40
2019-03-28T09:17:33.241Z,1.60
2019-03-28T09:18:33.229Z,1.50
2019-03-28T09:19:33.218Z,1.60
2019-03-28T09:20:33.192Z,1.40
2019-03-28T09:21:33.180Z,1.50
2019-03-28T09:22:33.172Z,1.50
2019-03-28T09:23:33.174Z,1.50
2019-03-28T09:24:33.149Z,1.60
2019-03-28T09:25:33.136Z,1.20
2019-03-28T09:26:33.310Z,1.40
2019-03-28T09:27:33.115Z,1.70
2019-03-28T09:28:33.122Z,1.20
2019-03-28T09:29:33.093Z,1.30
2019-03-28T09:30:46.786Z,1.30
2019-03-28T09:31:34.080Z,1.30
2019-03-28T09:32:33.066Z,1.10
2019-03-28T09:33:33.096Z,1.30
2019-03-28T09:34:33.065Z,1.30
2019-03-28T09:35:33.049Z,1.10
2019-03-28T09:36:33.042Z,1.10
2019-03-28T09:37:33.007Z,1.30
2019-03-28T09:38:33.009Z,1.20
2019-03-28T09:39:33.049Z,1.40
2019-03-28T09:40:32.975Z,1.20
2019-03-28T09:41:32.963Z,1.20
2019-03-28T09:42:32.955Z,1.30
2019-03-28T09:43:32.944Z,1.10
2019-03-28T09:44:32.945Z,1.40
2019-03-28T09:45:32.920Z,1.20
2019-03-28T09:46:32.910Z,1.50
2019-03-28T09:47:32.899Z,1.30
2019-03-28T09:48:32.888Z,1.20
2019-03-28T09:49:32.891Z,1.50
2019-03-28T09:50:32.866Z,1.40
2019-03-28T09:51:35.245Z,1.20
2019-03-28T09:52:32.842Z,1.30
2019-03-28T09:53:32.831Z,1.20
2019-03-28T09:54:32.838Z,1.30
2019-03-28T09:55:32.810Z,1.30
2019-03-28T09:56:32.798Z,1.20
2019-03-28T09:57:32.788Z,1.40
2019-03-28T09:58:33.918Z,1.20
2019-03-28T09:59:32.782Z,1.40
2019-03-28T10:00:33.944Z,1.30
2019-03-28T10:01:32.741Z,1.20
2019-03-28T10:02:32.730Z,1.60
2019-03-28T10:03:32.719Z,1.60
2019-03-28T10:04:32.728Z,1.50
2019-03-28T10:05:32.700Z,1.70
2019-03-28T10:06:32.684Z,1.50
2019-03-28T10:07:32.675Z,1.60
2019-03-28T10:08:32.662Z,1.50
2019-03-28T10:09:32.665Z,1.40
2019-03-28T10:10:32.653Z,1.60
2019-03-28T10:11:32.629Z,1.50
2019-03-28T10:12:34.218Z,1.60
2019-03-28T10:13:32.607Z,1.60
2019-03-28T10:14:32.612Z,1.40
2019-03-28T10:15:32.586Z,1.40
2019-03-28T10:16:32.575Z,1.30
2019-03-28T10:17:32.565Z,1.50
2019-03-28T10:18:32.552Z,1.10
2019-03-28T10:19:32.556Z,1.30
2019-03-28T10:20:32.530Z,1.40
2019-03-28T10:21:32.518Z,1.20
2019-03-28T10:22:32.506Z,1.40
2019-03-28T10:23:32.494Z,1.30
2019-03-28T10:24:32.498Z,1.10
2019-03-28T10:25:32.472Z,1.20
2019-03-28T10:26:32.462Z,1.10
2019-03-28T10:27:32.463Z,1.10
2019-03-28T10:28:32.452Z,1.30
2019-03-28T10:29:32.454Z,1.10
2019-03-28T10:30:32.414Z,1.20
2019-03-28T10:31:32.416Z,1.20
2019-03-28T10:32:32.518Z,1.00
2019-03-28T10:33:32.393Z,1.10
2019-03-28T10:34:32.399Z,1.00
2019-03-28T10:35:32.370Z,1.00
2019-03-28T10:36:32.359Z,1.10
2019-03-28T10:37:32.348Z,1.10
2019-03-28T10:38:32.335Z,1.10
2019-03-28T10:39:32.526Z,1.00
2019-03-28T10:40:32.314Z,1.00
2019-03-28T10:41:32.303Z,1.00
2019-03-28T10:42:32.290Z,0.90
2019-03-28T10:43:32.284Z,1.00
2019-03-28T10:44:32.268Z,1.00
2019-03-28T10:45:33.767Z,1.00
2019-03-28T10:46:32.245Z,0.90
2019-03-28T10:47:32.235Z,1.10
2019-03-28T10:48:32.224Z,1.10
2019-03-28T10:49:32.213Z,0.90
2019-03-28T10:50:41.276Z,1.00
2019-03-28T10:51:33.189Z,1.00
2019-03-28T10:52:32.178Z,1.00
2019-03-28T10:53:32.171Z,1.00
2019-03-28T10:54:32.157Z,1.00
2019-03-28T10:55:32.163Z,1.10
2019-03-28T10:56:32.136Z,1.00
2019-03-28T10:57:32.491Z,1.00
2019-03-28T10:58:34.853Z,0.90
2019-03-28T10:59:32.106Z,1.10
2019-03-28T11:00:32.104Z,1.00
2019-03-28T11:01:47.438Z,1.20
2019-03-28T11:02:33.066Z,0.90
2019-03-28T11:03:32.057Z,1.00
2019-03-28T11:04:32.047Z,0.90
2019-03-28T11:05:32.050Z,0.80
2019-03-28T11:06:32.506Z,1.00
2019-03-28T11:07:32.014Z,1.10
2019-03-28T11:08:32.002Z,1.00
2019-03-28T11:09:31.990Z,1.10
2019-03-28T11:10:31.996Z,0.90
2019-03-28T11:11:31.969Z,1.00
2019-03-28T11:12:31.958Z,0.90
2019-03-28T11:13:31.947Z,1.10
2019-03-28T11:14:31.935Z,0.90
2019-03-28T11:15:31.941Z,0.90
2019-03-28T11:16:31.914Z,1.00
2019-03-28T11:17:31.903Z,1.00
2019-03-28T11:18:31.893Z,1.10
2019-03-28T11:19:31.884Z,1.00
2019-03-28T11:20:31.885Z,1.00
2019-03-28T11:21:34.288Z,0.90
2019-03-28T11:22:31.848Z,0.90
2019-03-28T11:23:32.634Z,1.00
2019-03-28T11:24:31.825Z,1.00
2019-03-28T11:25:31.836Z,1.00
2019-03-28T11:26:31.801Z,1.00
2019-03-28T11:27:31.792Z,0.90
2019-03-28T11:28:31.781Z,0.90
2019-03-28T11:29:31.769Z,1.10
2019-03-28T11:30:31.783Z,0.90
2019-03-28T11:31:45.290Z,1.00
2019-03-28T11:32:35.743Z,1.00
2019-03-28T11:33:31.729Z,0.90
2019-03-28T11:34:31.715Z,0.80
2019-03-28T11:35:32.630Z,0.90
2019-03-28T11:36:31.693Z,0.90
2019-03-28T11:37:31.682Z,0.80
2019-03-28T11:38:31.670Z,1.00
2019-03-28T11:39:31.659Z,0.70
2019-03-28T11:40:31.662Z,1.00
2019-03-28T11:41:31.643Z,1.00
2019-03-28T11:42:31.627Z,0.80
2019-03-28T11:43:31.615Z,0.80
2019-03-28T11:44:31.604Z,0.90
2019-03-28T11:45:31.608Z,1.00
2019-03-28T11:46:31.582Z,0.90
2019-03-28T11:47:31.572Z,0.80
2019-03-28T11:48:31.559Z,0.80
2019-03-28T11:49:31.550Z,0.70
2019-03-28T11:50:31.556Z,0.70
2019-03-28T11:51:31.529Z,0.70
2019-03-28T11:52:31.519Z,0.90
2019-03-28T11:53:31.504Z,1.00
2019-03-28T11:54:31.495Z,1.10
2019-03-28T11:55:31.502Z,1.30
2019-03-28T11:56:31.474Z,1.30
2019-03-28T11:57:31.462Z,1.30
2019-03-28T11:58:31.452Z,1.20
2019-03-28T11:59:31.441Z,1.70
2019-03-28T12:00:31.468Z,1.70
2019-03-28T12:01:31.419Z,2.20
2019-03-28T12:02:31.409Z,2.20
2019-03-28T12:03:31.397Z,2.00
2019-03-28T12:04:31.385Z,2.20
2019-03-28T12:05:31.376Z,2.50
2019-03-28T12:06:31.380Z,2.30
2019-03-28T12:07:31.354Z,2.20
2019-03-28T12:08:31.344Z,1.90
2019-03-28T12:09:31.333Z,2.20
2019-03-28T12:10:31.320Z,2.20
2019-03-28T12:11:31.324Z,2.30
2019-03-28T12:12:31.297Z,2.20
2019-03-28T12:13:44.207Z,2.30
2019-03-28T12:14:32.274Z,2.00
2019-03-28T12:15:31.265Z,2.20
2019-03-28T12:16:31.289Z,2.20
2019-03-28T12:17:31.244Z,2.50
2019-03-28T12:18:31.235Z,3.20
2019-03-28T12:19:31.223Z,3.20
2019-03-28T12:20:31.212Z,3.30
2019-03-28T12:21:31.217Z,3.90
2019-03-28T12:22:31.191Z,6.10
2019-03-28T12:23:31.179Z,7.10
2019-03-28T12:24:31.168Z,6.90
2019-03-28T12:25:31.202Z,5.70
2019-03-28T12:26:31.160Z,4.90
2019-03-28T12:27:31.139Z,4.70
2019-03-28T12:28:31.124Z,4.20
2019-03-28T12:29:31.113Z,4.10
2019-03-28T12:30:31.105Z,3.90
2019-03-28T12:31:33.200Z,4.00
2019-03-28T12:32:31.083Z,4.40
2019-03-28T12:33:31.074Z,4.00
2019-03-28T12:34:31.061Z,4.40
2019-03-28T12:35:31.051Z,6.20
2019-03-28T12:36:31.053Z,7.00
2019-03-28T12:37:31.028Z,7.30
2019-03-28T12:38:31.016Z,7.70
2019-03-28T12:39:31.019Z,8.10
2019-03-28T12:40:30.997Z,9.80
2019-03-28T12:41:31.002Z,10.10
2019-03-28T12:42:30.974Z,12.70
2019-03-28T12:43:30.961Z,14.30
2019-03-28T12:44:30.951Z,12.30
2019-03-28T12:45:30.941Z,13.10
2019-03-28T12:46:30.948Z,14.50
2019-03-28T12:47:41.575Z,14.10
2019-03-28T12:48:31.907Z,10.70
2019-03-28T12:49:30.898Z,10.10
2019-03-28T12:50:30.908Z,10.90
2019-03-28T12:51:30.911Z,10.90
2019-03-28T12:52:30.944Z,10.20
2019-03-28T12:53:30.905Z,9.90
2019-03-28T12:54:30.939Z,9.50
2019-03-28T12:55:30.926Z,9.20
2019-03-28T12:56:30.887Z,9.60
2019-03-28T12:57:30.889Z,9.10
2019-03-28T12:58:30.937Z,9.30
2019-03-28T12:59:33.619Z,8.70
2019-03-28T13:00:30.891Z,9.40
2019-03-28T13:01:30.871Z,8.70
2019-03-28T13:02:32.086Z,8.40
2019-03-28T13:03:44.450Z,8.10
2019-03-28T13:04:31.734Z,8.30
2019-03-28T13:05:30.773Z,8.50
2019-03-28T13:06:30.786Z,8.30
2019-03-28T13:07:30.717Z,8.10
2019-03-28T13:08:30.746Z,8.30
2019-03-28T13:09:30.689Z,7.80
2019-03-28T13:10:30.675Z,7.70
2019-03-28T13:11:30.704Z,8.10
2019-03-28T13:12:30.650Z,11.90
2019-03-28T13:13:30.637Z,11.90
2019-03-28T13:14:31.369Z,11.50
2019-03-28T13:15:30.616Z,10.60
2019-03-28T13:16:31.525Z,10.70
2019-03-28T13:17:30.597Z,10.80